Time;durP1;ratioP1;P1;durP2;ratioP2;P2;SDS_P1;SDS_P2;PMS_P1;PMS_P2;Temp;Humidity;BMP_temperature;BMP_pressure;BME280_temperature;BME280_humidity;BME280_pressure;Samples;Min_cycle;Max_cycle;Signal;HPM_P1;HPM_P2
2023/08/24 00:01:30;;;;;;;0.10;0.10;;;;;;;;;;5104960;28;20044;-52
2023/08/24 00:03:56;;;;;;;0.10;0.10;;;;;;;;;;5097148;28;20204;-51
2023/08/24 00:06:21;;;;;;;0.10;0.10;;;;;;;;;;5096705;28;20264;-51
2023/08/24 00:08:47;;;;;;;0.10;0.10;;;;;;;;;;5096067;28;20047;-54
2023/08/24 00:11:14;;;;;;;0.10;0.10;;;;;;;;;;5095503;28;20040;-51
2023/08/24 00:13:46;;;;;;;0.10;0.10;;;;;;;;;;5114362;28;20090;-51
2023/08/24 00:16:11;;;;;;;0.30;0.30;;;;;;;;;;5111971;28;20661;-53
2023/08/24 00:18:37;;;;;;;0.10;0.10;;;;;;;;;;5113048;28;20138;-53
2023/08/24 00:21:03;;;;;;;0.10;0.10;;;;;;;;;;5103088;28;20083;-54
2023/08/24 00:23:28;;;;;;;0.10;0.10;;;;;;;;;;5096476;28;20541;-53
2023/08/24 00:25:54;;;;;;;0.10;0.10;;;;;;;;;;5096576;28;20367;-54
2023/08/24 00:28:19;;;;;;;0.10;0.10;;;;;;;;;;5096323;28;20047;-52
2023/08/24 00:30:45;;;;;;;0.10;0.10;;;;;;;;;;5094794;28;20071;-53
2023/08/24 00:33:11;;;;;;;0.10;0.10;;;;;;;;;;5096334;28;20054;-52
2023/08/24 00:35:36;;;;;;;0.10;0.10;;;;;;;;;;5096636;28;20143;-54
2023/08/24 00:38:02;;;;;;;0.10;0.10;;;;;;;;;;5095875;28;20115;-52
2023/08/24 00:40:28;;;;;;;0.10;0.10;;;;;;;;;;5096924;28;20122;-51
2023/08/24 00:42:53;;;;;;;0.10;0.10;;;;;;;;;;5100577;28;20043;-52
2023/08/24 00:45:19;;;;;;;0.10;0.10;;;;;;;;;;5115502;28;20435;-53
2023/08/24 00:47:46;;;;;;;0.10;0.10;;;;;;;;;;5099774;28;20128;-51
2023/08/24 00:50:12;;;;;;;0.10;0.10;;;;;;;;;;5094805;28;20541;-51
2023/08/24 00:52:39;;;;;;;0.10;0.10;;;;;;;;;;5095329;28;20048;-53
2023/08/24 00:55:05;;;;;;;0.10;0.10;;;;;;;;;;5091585;28;20508;-52
2023/08/24 00:57:30;;;;;;;0.10;0.10;;;;;;;;;;5095949;28;20040;-54
2023/08/24 00:59:56;;;;;;;0.10;0.10;;;;;;;;;;5095278;28;20048;-54
2023/08/24 01:02:22;;;;;;;0.10;0.10;;;;;;;;;;5099187;28;20459;-53
2023/08/24 01:04:47;;;;;;;0.10;0.10;;;;;;;;;;5110697;28;20039;-50
2023/08/24 01:07:14;;;;;;;0.10;0.10;;;;;;;;;;5114945;28;20130;-54
2023/08/24 01:09:40;;;;;;;0.10;0.10;;;;;;;;;;5117119;27;20081;-54
2023/08/24 01:12:19;;;;;;;0.10;0.10;;;;;;;;;;5102781;28;20044;-52
2023/08/24 01:15:05;;;;;;;0.10;0.10;;;;;;;;;;5109429;28;20078;-52
2023/08/24 01:17:31;;;;;;;0.10;0.10;;;;;;;;;;5102010;28;20535;-53
2023/08/24 01:19:58;;;;;;;0.10;0.10;;;;;;;;;;5115051;28;20153;-52
2023/08/24 01:22:31;;;;;;;0.10;0.10;;;;;;;;;;5107437;28;20079;-51
2023/08/24 01:25:03;;;;;;;0.05;0.05;;;;;;;;;;5097246;28;20104;-52
2023/08/24 01:27:31;;;;;;;0.10;0.10;;;;;;;;;;5098351;28;20098;-51
2023/08/24 01:29:59;;;;;;;0.10;0.10;;;;;;;;;;5097763;28;20071;-52
2023/08/24 01:32:24;;;;;;;0.00;0.00;;;;;;;;;;5097970;28;20117;-54
2023/08/24 01:34:50;;;;;;;0.10;0.10;;;;;;;;;;5099623;28;20414;-51
2023/08/24 01:37:16;;;;;;;0.10;0.10;;;;;;;;;;5097825;28;20044;-52
2023/08/24 01:39:46;;;;;;;0.10;0.10;;;;;;;;;;5097906;28;20272;-54
2023/08/24 01:42:18;;;;;;;0.10;0.10;;;;;;;;;;5098753;28;20053;-55
2023/08/24 01:44:47;;;;;;;0.10;0.10;;;;;;;;;;5106132;28;20128;-52
2023/08/24 01:47:13;;;;;;;0.10;0.10;;;;;;;;;;5116579;28;20047;-53
2023/08/24 01:49:39;;;;;;;0.10;0.10;;;;;;;;;;5111402;28;20054;-53
2023/08/24 01:52:05;;;;;;;0.10;0.10;;;;;;;;;;5095385;28;20083;-51
2023/08/24 01:54:31;;;;;;;0.10;0.10;;;;;;;;;;5098056;28;20059;-53
2023/08/24 01:56:56;;;;;;;0.10;0.10;;;;;;;;;;5098809;28;20120;-52
2023/08/24 01:59:22;;;;;;;0.10;0.10;;;;;;;;;;5104160;28;20047;-50
2023/08/24 02:01:47;;;;;;;0.10;0.10;;;;;;;;;;5101339;28;20052;-53
2023/08/24 02:04:13;;;;;;;0.13;0.13;;;;;;;;;;5099844;28;20513;-53
2023/08/24 02:06:39;;;;;;;0.10;0.10;;;;;;;;;;5098070;28;20539;-51
2023/08/24 02:09:04;;;;;;;0.10;0.10;;;;;;;;;;5097843;28;20047;-53
2023/08/24 02:11:30;;;;;;;0.10;0.10;;;;;;;;;;5096901;28;20556;-52
2023/08/24 02:13:56;;;;;;;0.10;0.10;;;;;;;;;;5098034;28;20585;-51
2023/08/24 02:16:21;;;;;;;0.10;0.10;;;;;;;;;;5100638;28;20051;-51
2023/08/24 02:18:47;;;;;;;0.10;0.10;;;;;;;;;;5103878;28;20231;-51
2023/08/24 02:21:14;;;;;;;0.10;0.10;;;;;;;;;;5102485;27;20047;-51
2023/08/24 02:23:39;;;;;;;0.10;0.10;;;;;;;;;;5108192;28;20581;-55
2023/08/24 02:26:05;;;;;;;0.10;0.10;;;;;;;;;;5116045;28;20039;-53
2023/08/24 02:28:32;;;;;;;0.10;0.10;;;;;;;;;;5105879;28;20339;-53
2023/08/24 02:31:01;;;;;;;0.10;0.10;;;;;;;;;;5107593;28;20191;-51
2023/08/24 02:33:27;;;;;;;0.10;0.10;;;;;;;;;;5096389;28;20404;-53
2023/08/24 02:35:52;;;;;;;0.10;0.10;;;;;;;;;;5097088;28;20048;-53
2023/08/24 02:38:18;;;;;;;0.10;0.10;;;;;;;;;;5096877;28;20062;-51
2023/08/24 02:40:43;;;;;;;0.10;0.10;;;;;;;;;;5098962;28;20047;-54
2023/08/24 02:43:09;;;;;;;0.10;0.10;;;;;;;;;;5097878;28;20055;-53
2023/08/24 02:45:35;;;;;;;0.10;0.10;;;;;;;;;;5099599;28;20122;-53
2023/08/24 02:48:00;;;;;;;0.10;0.10;;;;;;;;;;5112670;28;20228;-52
2023/08/24 02:50:26;;;;;;;0.10;0.10;;;;;;;;;;5100443;28;20289;-54
2023/08/24 02:52:52;;;;;;;0.10;0.10;;;;;;;;;;5096411;28;20127;-52
2023/08/24 02:55:17;;;;;;;0.10;0.10;;;;;;;;;;5088090;27;20195;-54
2023/08/24 02:57:43;;;;;;;0.20;0.20;;;;;;;;;;5096306;28;20048;-54
2023/08/24 03:00:09;;;;;;;0.10;0.10;;;;;;;;;;5095783;28;20048;-54
2023/08/24 03:02:36;;;;;;;0.10;0.10;;;;;;;;;;5111390;28;20044;-54
2023/08/24 03:05:02;;;;;;;0.10;0.10;;;;;;;;;;5098945;28;20434;-50
2023/08/24 03:07:27;;;;;;;0.10;0.10;;;;;;;;;;5115314;28;20553;-52
2023/08/24 03:09:53;;;;;;;0.10;0.10;;;;;;;;;;5116783;28;20054;-53
2023/08/24 03:12:18;;;;;;;0.10;0.10;;;;;;;;;;5096621;28;20109;-54
2023/08/24 03:14:44;;;;;;;0.10;0.10;;;;;;;;;;5097150;28;20132;-54
2023/08/24 03:17:09;;;;;;;0.10;0.10;;;;;;;;;;5097289;28;20776;-55
2023/08/24 03:19:35;;;;;;;0.10;0.10;;;;;;;;;;5096887;28;20047;-53
2023/08/24 03:22:00;;;;;;;0.10;0.10;;;;;;;;;;5096938;28;20051;-51
2023/08/24 03:24:26;;;;;;;0.17;0.17;;;;;;;;;;5113078;28;20515;-53
2023/08/24 03:26:51;;;;;;;0.10;0.10;;;;;;;;;;5103073;28;20476;-50
2023/08/24 03:29:17;;;;;;;0.10;0.10;;;;;;;;;;5096271;28;20126;-52
2023/08/24 03:31:42;;;;;;;0.10;0.10;;;;;;;;;;5097175;28;20160;-54
2023/08/24 03:34:08;;;;;;;0.10;0.10;;;;;;;;;;5096536;28;20052;-51
2023/08/24 03:36:33;;;;;;;0.10;0.10;;;;;;;;;;5097182;28;20096;-51
2023/08/24 03:38:59;;;;;;;0.10;0.10;;;;;;;;;;5097689;28;20059;-53
2023/08/24 03:41:25;;;;;;;0.10;0.10;;;;;;;;;;5096261;28;20264;-53
2023/08/24 03:43:50;;;;;;;0.10;0.10;;;;;;;;;;5098532;28;20269;-51
2023/08/24 03:46:16;;;;;;;0.10;0.10;;;;;;;;;;5102212;28;20062;-51
2023/08/24 03:48:41;;;;;;;0.10;0.10;;;;;;;;;;5107741;28;20043;-51
2023/08/24 03:51:07;;;;;;;0.10;0.10;;;;;;;;;;5111104;28;20075;-53
2023/08/24 03:53:32;;;;;;;0.10;0.10;;;;;;;;;;5103414;28;20043;-50
2023/08/24 03:55:58;;;;;;;0.10;0.10;;;;;;;;;;5096878;28;20618;-53
2023/08/24 03:58:23;;;;;;;0.10;0.10;;;;;;;;;;5097267;28;20059;-53
2023/08/24 04:00:50;;;;;;;0.10;0.10;;;;;;;;;;5095786;28;20066;-52
2023/08/24 04:03:15;;;;;;;0.10;0.10;;;;;;;;;;5103442;28;20540;-51
2023/08/24 04:05:41;;;;;;;0.10;0.10;;;;;;;;;;5116047;28;20050;-53
2023/08/24 04:08:07;;;;;;;0.10;0.10;;;;;;;;;;5102649;28;20047;-52
2023/08/24 04:10:32;;;;;;;0.10;0.10;;;;;;;;;;5109861;28;20043;-54
2023/08/24 04:12:58;;;;;;;0.10;0.10;;;;;;;;;;5096186;28;20522;-50
2023/08/24 04:15:23;;;;;;;0.20;0.20;;;;;;;;;;5096079;28;20434;-52
2023/08/24 04:17:49;;;;;;;0.10;0.10;;;;;;;;;;5096342;28;20235;-51
2023/08/24 04:20:15;;;;;;;0.10;0.10;;;;;;;;;;5101313;28;20506;-52
2023/08/24 04:22:41;;;;;;;0.10;0.10;;;;;;;;;;5098414;28;20060;-53
2023/08/24 04:25:07;;;;;;;0.10;0.10;;;;;;;;;;5095965;28;20100;-50
2023/08/24 04:27:33;;;;;;;0.10;0.10;;;;;;;;;;5105400;28;20043;-51
2023/08/24 04:29:59;;;;;;;0.10;0.10;;;;;;;;;;5111492;28;20424;-53
2023/08/24 04:32:24;;;;;;;0.10;0.10;;;;;;;;;;5093853;28;20087;-52
2023/08/24 04:34:50;;;;;;;0.10;0.10;;;;;;;;;;5094396;28;20052;-50
2023/08/24 04:37:16;;;;;;;0.10;0.10;;;;;;;;;;5095243;28;20048;-53
2023/08/24 04:39:41;;;;;;;0.10;0.10;;;;;;;;;;5095046;28;20044;-54
2023/08/24 04:42:07;;;;;;;0.10;0.10;;;;;;;;;;5093498;28;20476;-53
2023/08/24 04:44:32;;;;;;;0.10;0.10;;;;;;;;;;5097164;28;20046;-50
2023/08/24 04:46:58;;;;;;;0.10;0.10;;;;;;;;;;5098374;28;20253;-61
2023/08/24 04:49:23;;;;;;;0.10;0.10;;;;;;;;;;5098838;28;20075;-50
2023/08/24 04:51:49;;;;;;;0.10;0.10;;;;;;;;;;5104173;28;20221;-54
2023/08/24 04:54:15;;;;;;;0.10;0.10;;;;;;;;;;5104606;28;20489;-51
2023/08/24 04:56:40;;;;;;;0.10;0.10;;;;;;;;;;5115526;28;20047;-52
2023/08/24 04:59:07;;;;;;;0.13;0.13;;;;;;;;;;5117709;28;20051;-52
2023/08/24 05:01:33;;;;;;;0.10;0.10;;;;;;;;;;5100018;28;20236;-50
2023/08/24 05:03:59;;;;;;;0.10;0.10;;;;;;;;;;5096235;28;20461;-52
2023/08/24 05:06:25;;;;;;;0.20;0.20;;;;;;;;;;5099769;28;20580;-53
2023/08/24 05:08:50;;;;;;;0.10;0.10;;;;;;;;;;5102978;28;20441;-51
2023/08/24 05:11:18;;;;;;;0.10;0.10;;;;;;;;;;5100828;28;20096;-51
2023/08/24 05:13:44;;;;;;;0.10;0.10;;;;;;;;;;5095198;28;20685;-50
2023/08/24 05:16:09;;;;;;;0.10;0.10;;;;;;;;;;5096366;28;20533;-50
2023/08/24 05:18:36;;;;;;;0.10;0.10;;;;;;;;;;5096862;28;20248;-53
2023/08/24 05:21:03;;;;;;;0.10;0.10;;;;;;;;;;5101412;28;20070;-50
2023/08/24 05:23:29;;;;;;;0.10;0.10;;;;;;;;;;5095689;28;20233;-50
2023/08/24 05:25:56;;;;;;;0.10;0.10;;;;;;;;;;5103185;28;20497;-54
2023/08/24 05:28:21;;;;;;;0.10;0.10;;;;;;;;;;5108128;28;20342;-54
2023/08/24 05:30:47;;;;;;;0.10;0.10;;;;;;;;;;5094387;28;20048;-54
2023/08/24 05:33:12;;;;;;;0.20;0.20;;;;;;;;;;5101468;28;20080;-54
2023/08/24 05:35:38;;;;;;;0.20;0.20;;;;;;;;;;5093763;28;20498;-51
2023/08/24 05:38:03;;;;;;;0.10;0.10;;;;;;;;;;5085047;28;20040;-54
2023/08/24 05:40:29;;;;;;;0.10;0.10;;;;;;;;;;5087706;28;20078;-55
2023/08/24 05:42:55;;;;;;;0.10;0.10;;;;;;;;;;5085726;28;20116;-52
2023/08/24 05:45:20;;;;;;;0.10;0.10;;;;;;;;;;5088762;28;20145;-51
2023/08/24 05:47:47;;;;;;;0.10;0.10;;;;;;;;;;5090835;28;20051;-51
2023/08/24 05:50:13;;;;;;;0.10;0.10;;;;;;;;;;5093659;28;20282;-59
2023/08/24 05:52:39;;;;;;;0.10;0.10;;;;;;;;;;5094491;28;20258;-59
2023/08/24 05:55:05;;;;;;;0.20;0.20;;;;;;;;;;5098029;28;20047;-55
2023/08/24 05:57:31;;;;;;;0.10;0.10;;;;;;;;;;5081739;28;20079;-53
2023/08/24 05:59:56;;;;;;;0.10;0.10;;;;;;;;;;5079257;28;20680;-52
2023/08/24 06:02:22;;;;;;;0.10;0.10;;;;;;;;;;5082243;28;20317;-52
2023/08/24 06:04:47;;;;;;;0.10;0.10;;;;;;;;;;5077766;28;20047;-53
2023/08/24 06:07:13;;;;;;;0.30;0.30;;;;;;;;;;5079127;28;20043;-54
2023/08/24 06:09:38;;;;;;;0.35;0.30;;;;;;;;;;5088097;28;20686;-54
2023/08/24 06:12:04;;;;;;;0.10;0.10;;;;;;;;;;5086677;28;20452;-54
2023/08/24 06:14:30;;;;;;;0.10;0.10;;;;;;;;;;5084226;28;20104;-54
2023/08/24 06:16:55;;;;;;;0.10;0.10;;;;;;;;;;5086236;28;20194;-54
2023/08/24 06:19:21;;;;;;;0.10;0.10;;;;;;;;;;5090297;28;20063;-54
2023/08/24 06:21:46;;;;;;;0.10;0.10;;;;;;;;;;5089719;28;20185;-54
2023/08/24 06:24:12;;;;;;;0.10;0.10;;;;;;;;;;5095019;28;20252;-52
2023/08/24 06:26:37;;;;;;;0.10;0.10;;;;;;;;;;5092499;28;20066;-54
2023/08/24 06:29:03;;;;;;;0.10;0.10;;;;;;;;;;5092985;28;20135;-52
2023/08/24 06:31:31;;;;;;;0.10;0.10;;;;;;;;;;5098492;28;20451;-53
2023/08/24 06:33:56;;;;;;;0.13;0.13;;;;;;;;;;5095810;28;20040;-54
2023/08/24 06:36:22;;;;;;;0.20;0.20;;;;;;;;;;5087642;28;20044;-53
2023/08/24 06:38:47;;;;;;;0.10;0.10;;;;;;;;;;5088707;28;20051;-53
2023/08/24 06:41:13;;;;;;;0.10;0.10;;;;;;;;;;5093274;28;20054;-53
2023/08/24 06:43:39;;;;;;;0.10;0.10;;;;;;;;;;5088141;28;20063;-54
2023/08/24 06:46:07;;;;;;;0.10;0.10;;;;;;;;;;5086616;28;20048;-53
2023/08/24 06:48:34;;;;;;;0.10;0.10;;;;;;;;;;5090449;28;20055;-54
2023/08/24 06:50:59;;;;;;;0.10;0.10;;;;;;;;;;5079178;28;20052;-54
2023/08/24 06:53:25;;;;;;;0.10;0.10;;;;;;;;;;5081572;28;20242;-53
2023/08/24 06:55:57;;;;;;;0.10;0.10;;;;;;;;;;5081578;28;20278;-53
2023/08/24 06:58:23;;;;;;;0.10;0.10;;;;;;;;;;5076783;28;20043;-55
2023/08/24 07:00:52;;;;;;;0.10;0.10;;;;;;;;;;5072258;28;20792;-53
2023/08/24 07:03:18;;;;;;;0.10;0.10;;;;;;;;;;5073070;28;20898;-53
2023/08/24 07:05:44;;;;;;;0.10;0.10;;;;;;;;;;5073442;28;20090;-51
2023/08/24 07:08:09;;;;;;;0.10;0.10;;;;;;;;;;5060466;27;20789;-54
2023/08/24 07:10:35;;;;;;;0.10;0.10;;;;;;;;;;5065249;28;20730;-53
2023/08/24 07:13:00;;;;;;;0.10;0.10;;;;;;;;;;5075415;28;20132;-53
2023/08/24 07:15:26;;;;;;;0.10;0.10;;;;;;;;;;5075650;28;20776;-55
2023/08/24 07:17:51;;;;;;;0.10;0.10;;;;;;;;;;5080574;28;20450;-52
2023/08/24 07:20:17;;;;;;;0.10;0.10;;;;;;;;;;5082263;28;20040;-55
2023/08/24 07:22:43;;;;;;;0.10;0.10;;;;;;;;;;5079735;28;21297;-54
2023/08/24 07:25:11;;;;;;;0.10;0.10;;;;;;;;;;5083374;28;20087;-53
2023/08/24 07:27:36;;;;;;;0.10;0.10;;;;;;;;;;5087034;28;20071;-54
2023/08/24 07:30:05;;;;;;;0.10;0.10;;;;;;;;;;5087014;28;20128;-56
2023/08/24 07:32:43;;;;;;;0.10;0.10;;;;;;;;;;5087751;28;20412;-54
2023/08/24 07:35:09;;;;;;;0.10;0.10;;;;;;;;;;5086818;28;20054;-55
2023/08/24 07:37:34;;;;;;;0.10;0.10;;;;;;;;;;5092092;28;20239;-52
2023/08/24 07:40:00;;;;;;;0.20;0.20;;;;;;;;;;5087168;28;20055;-54
2023/08/24 07:42:25;;;;;;;0.10;0.10;;;;;;;;;;5081972;28;20071;-51
2023/08/24 07:44:51;;;;;;;0.10;0.10;;;;;;;;;;5089583;28;20139;-51
2023/08/24 07:47:16;;;;;;;0.10;0.10;;;;;;;;;;5096353;28;20043;-52
2023/08/24 07:49:44;;;;;;;0.10;0.10;;;;;;;;;;5081776;28;20275;-51
2023/08/24 07:52:11;;;;;;;0.10;0.10;;;;;;;;;;5089286;28;20048;-51
2023/08/24 07:54:36;;;;;;;0.10;0.10;;;;;;;;;;5086609;28;20063;-50
2023/08/24 07:57:02;;;;;;;0.10;0.10;;;;;;;;;;5081737;28;20482;-51
2023/08/24 07:59:27;;;;;;;0.10;0.10;;;;;;;;;;5081996;28;20554;-53
2023/08/24 08:01:53;;;;;;;0.10;0.10;;;;;;;;;;5083749;28;20040;-53
2023/08/24 08:04:18;;;;;;;0.10;0.10;;;;;;;;;;5070903;28;20082;-50
2023/08/24 08:06:44;;;;;;;0.10;0.10;;;;;;;;;;5075234;28;20043;-50
2023/08/24 08:09:10;;;;;;;0.10;0.10;;;;;;;;;;5073420;28;20055;-51
2023/08/24 08:11:36;;;;;;;0.20;0.20;;;;;;;;;;5078924;28;20047;-53
2023/08/24 08:14:01;;;;;;;0.10;0.10;;;;;;;;;;5057144;28;20087;-52
2023/08/24 08:16:27;;;;;;;0.10;0.10;;;;;;;;;;5070677;28;20211;-52
2023/08/24 08:18:52;;;;;;;0.10;0.10;;;;;;;;;;5074047;28;20266;-53
2023/08/24 08:21:18;;;;;;;0.10;0.10;;;;;;;;;;5078564;28;20182;-51
2023/08/24 08:23:47;;;;;;;0.10;0.10;;;;;;;;;;5080163;28;20150;-51
2023/08/24 08:26:14;;;;;;;0.10;0.10;;;;;;;;;;5086414;28;20039;-51
2023/08/24 08:28:39;;;;;;;0.10;0.10;;;;;;;;;;5080560;28;20138;-51
2023/08/24 08:31:05;;;;;;;0.10;0.10;;;;;;;;;;5082417;28;20593;-51
2023/08/24 08:33:31;;;;;;;0.20;0.20;;;;;;;;;;5070254;28;20059;-53
2023/08/24 08:35:57;;;;;;;0.10;0.10;;;;;;;;;;5072980;28;20043;-54
2023/08/24 08:38:25;;;;;;;0.10;0.10;;;;;;;;;;5067886;28;20048;-53
2023/08/24 08:40:53;;;;;;;0.10;0.10;;;;;;;;;;5075651;28;20405;-50
2023/08/24 08:43:20;;;;;;;0.10;0.10;;;;;;;;;;5077637;28;20571;-55
2023/08/24 08:45:46;;;;;;;0.10;0.10;;;;;;;;;;5077246;28;20260;-54
2023/08/24 08:48:12;;;;;;;0.10;0.10;;;;;;;;;;5083648;28;20044;-52
2023/08/24 08:50:38;;;;;;;0.10;0.10;;;;;;;;;;5082120;28;20044;-51
2023/08/24 08:53:04;;;;;;;0.10;0.10;;;;;;;;;;5083345;28;20069;-51
2023/08/24 08:55:30;;;;;;;0.10;0.10;;;;;;;;;;5080378;28;20053;-52
2023/08/24 08:57:58;;;;;;;0.20;0.20;;;;;;;;;;5072716;28;20255;-52
2023/08/24 09:00:24;;;;;;;0.10;0.10;;;;;;;;;;5090364;28;20078;-53
2023/08/24 09:02:51;;;;;;;0.10;0.10;;;;;;;;;;5066109;28;20083;-51
2023/08/24 09:05:17;;;;;;;0.10;0.10;;;;;;;;;;5088215;28;20059;-50
2023/08/24 09:07:42;;;;;;;0.10;0.10;;;;;;;;;;5087159;28;20099;-53
2023/08/24 09:10:08;;;;;;;0.30;0.30;;;;;;;;;;5090596;28;20047;-56
2023/08/24 09:12:34;;;;;;;0.10;0.10;;;;;;;;;;5074143;28;20466;-52
2023/08/24 09:15:03;;;;;;;0.10;0.10;;;;;;;;;;5086153;28;20036;-51
2023/08/24 09:17:29;;;;;;;0.10;0.10;;;;;;;;;;5064650;28;20047;-54
2023/08/24 09:19:58;;;;;;;0.10;0.10;;;;;;;;;;5087089;28;20290;-56
2023/08/24 09:22:24;;;;;;;0.10;0.10;;;;;;;;;;5091361;28;20351;-52
2023/08/24 09:24:50;;;;;;;0.10;0.10;;;;;;;;;;5094651;28;20139;-54
2023/08/24 09:27:18;;;;;;;0.10;0.10;;;;;;;;;;5082852;28;20046;-54
2023/08/24 09:29:51;;;;;;;0.05;0.05;;;;;;;;;;5094364;27;20406;-54
2023/08/24 09:32:22;;;;;;;0.10;0.10;;;;;;;;;;5097925;28;20132;-51
2023/08/24 09:34:47;;;;;;;0.10;0.10;;;;;;;;;;5090858;28;20044;-53
2023/08/24 09:37:14;;;;;;;0.10;0.10;;;;;;;;;;5090294;28;20435;-53
2023/08/24 09:39:40;;;;;;;0.10;0.10;;;;;;;;;;5081932;28;20048;-50
2023/08/24 09:42:05;;;;;;;0.10;0.10;;;;;;;;;;5092595;28;20209;-53
2023/08/24 09:44:31;;;;;;;0.10;0.10;;;;;;;;;;5082006;28;20627;-53
2023/08/24 09:46:56;;;;;;;0.10;0.10;;;;;;;;;;5077390;28;20047;-54
2023/08/24 09:49:22;;;;;;;0.13;0.13;;;;;;;;;;5081711;28;20055;-53
2023/08/24 09:51:48;;;;;;;0.10;0.10;;;;;;;;;;5089152;28;20055;-51
2023/08/24 09:54:15;;;;;;;0.10;0.10;;;;;;;;;;5090095;28;20126;-53
2023/08/24 09:56:41;;;;;;;0.10;0.10;;;;;;;;;;5067648;28;20048;-50
2023/08/24 09:59:10;;;;;;;0.10;0.10;;;;;;;;;;5085545;28;20044;-51
2023/08/24 10:01:36;;;;;;;0.10;0.10;;;;;;;;;;5084007;28;20054;-54
2023/08/24 10:04:04;;;;;;;0.10;0.10;;;;;;;;;;5082061;28;20536;-52
2023/08/24 10:06:30;;;;;;;0.10;0.10;;;;;;;;;;5100627;28;20043;-52
2023/08/24 10:08:58;;;;;;;0.20;0.20;;;;;;;;;;5095869;28;20108;-52
2023/08/24 10:11:26;;;;;;;0.25;0.25;;;;;;;;;;5084539;28;20140;-52
2023/08/24 10:14:12;;;;;;;0.10;0.10;;;;;;;;;;5075155;28;20071;-51
2023/08/24 10:16:37;;;;;;;0.10;0.10;;;;;;;;;;5080751;28;20074;-54
2023/08/24 10:19:03;;;;;;;0.10;0.10;;;;;;;;;;5083973;28;20484;-50
2023/08/24 10:21:29;;;;;;;0.10;0.10;;;;;;;;;;5096338;28;20050;-52
2023/08/24 10:23:57;;;;;;;0.10;0.10;;;;;;;;;;5094036;28;20678;-54
2023/08/24 10:26:23;;;;;;;0.55;0.30;;;;;;;;;;5083026;28;20051;-52
2023/08/24 10:28:50;;;;;;;0.10;0.10;;;;;;;;;;5048513;28;20128;-53
2023/08/24 10:31:16;;;;;;;0.10;0.10;;;;;;;;;;5095418;28;20062;-53
2023/08/24 10:33:44;;;;;;;0.10;0.10;;;;;;;;;;5089733;28;20131;-53
2023/08/24 10:36:09;;;;;;;0.10;0.10;;;;;;;;;;5085406;28;20056;-53
2023/08/24 10:38:40;;;;;;;0.10;0.10;;;;;;;;;;5086816;28;20066;-51
2023/08/24 10:41:06;;;;;;;0.10;0.10;;;;;;;;;;5067587;28;20539;-52
2023/08/24 10:43:37;;;;;;;0.10;0.10;;;;;;;;;;5089824;28;20047;-54
2023/08/24 10:46:03;;;;;;;0.10;0.10;;;;;;;;;;5086486;28;20044;-54
2023/08/24 10:48:49;;;;;;;0.10;0.10;;;;;;;;;;5091138;28;20043;-54
2023/08/24 10:53:52;;;;;;;0.10;0.10;;;;;;;;;;5164164;27;20205;-51
2023/08/24 10:56:18;;;;;;;0.20;0.20;;;;;;;;;;5152836;27;20498;-54
2023/08/24 10:58:44;;;;;;;0.10;0.10;;;;;;;;;;5129500;27;20055;-52
2023/08/24 11:01:17;;;;;;;0.10;0.10;;;;;;;;;;5147979;27;20084;-52
2023/08/24 11:03:51;;;;;;;0.10;0.10;;;;;;;;;;5131412;27;20398;-51
2023/08/24 11:06:25;;;;;;;0.10;0.10;;;;;;;;;;5141636;27;20459;-53
2023/08/24 11:09:04;;;;;;;0.10;0.10;;;;;;;;;;5138278;27;20051;-51
2023/08/24 11:11:30;;;;;;;0.10;0.10;;;;;;;;;;5136507;27;20043;-53
2023/08/24 11:14:16;;;;;;;0.95;0.32;;;;;;;;;;5114846;27;20114;-54
2023/08/24 11:16:43;;;;;;;0.10;0.10;;;;;;;;;;5131448;27;20431;-51
2023/08/24 11:19:10;;;;;;;0.10;0.10;;;;;;;;;;5142245;27;20051;-52
2023/08/24 11:21:36;;;;;;;0.10;0.10;;;;;;;;;;5143817;27;20063;-53
2023/08/24 11:24:02;;;;;;;0.10;0.10;;;;;;;;;;5120754;27;20587;-53
2023/08/24 11:26:29;;;;;;;0.10;0.10;;;;;;;;;;5136526;27;20452;-53
2023/08/24 11:28:55;;;;;;;0.10;0.10;;;;;;;;;;5148383;27;20401;-51
2023/08/24 11:31:20;;;;;;;0.10;0.10;;;;;;;;;;5135238;27;20058;-54
2023/08/24 11:33:46;;;;;;;0.10;0.10;;;;;;;;;;5130165;27;20527;-54
2023/08/24 11:36:12;;;;;;;0.10;0.10;;;;;;;;;;5138484;27;20061;-52
2023/08/24 11:38:38;;;;;;;0.20;0.10;;;;;;;;;;5137482;27;20742;-52
2023/08/24 11:41:13;;;;;;;0.10;0.10;;;;;;;;;;5145024;27;20091;-55
2023/08/24 11:43:39;;;;;;;0.13;0.13;;;;;;;;;;5144687;27;20083;-51
2023/08/24 11:46:04;;;;;;;0.10;0.10;;;;;;;;;;5144037;27;20466;-53
2023/08/24 11:48:30;;;;;;;0.10;0.10;;;;;;;;;;5147029;27;20054;-54
2023/08/24 11:50:57;;;;;;;0.10;0.10;;;;;;;;;;5143062;27;20045;-51
2023/08/24 11:53:24;;;;;;;0.10;0.10;;;;;;;;;;5144049;27;20653;-54
2023/08/24 11:55:52;;;;;;;0.10;0.10;;;;;;;;;;5141960;27;20066;-51
2023/08/24 11:58:31;;;;;;;0.10;0.10;;;;;;;;;;5129043;27;20074;-53
2023/08/24 12:00:57;;;;;;;0.10;0.10;;;;;;;;;;5141764;27;20233;-52
2023/08/24 12:03:23;;;;;;;0.15;0.15;;;;;;;;;;5146436;27;20414;-52
2023/08/24 12:05:49;;;;;;;0.10;0.10;;;;;;;;;;5132790;27;20267;-51
2023/08/24 12:08:15;;;;;;;0.10;0.10;;;;;;;;;;5132306;27;20453;-53
2023/08/24 12:10:42;;;;;;;0.10;0.10;;;;;;;;;;5129733;27;20499;-50
2023/08/24 12:13:09;;;;;;;0.10;0.10;;;;;;;;;;5134850;27;20131;-50
2023/08/24 12:15:38;;;;;;;0.10;0.10;;;;;;;;;;5128049;27;20301;-52
2023/08/24 12:18:07;;;;;;;0.10;0.10;;;;;;;;;;5134815;27;20490;-52
2023/08/24 12:20:32;;;;;;;0.10;0.10;;;;;;;;;;5135074;27;20055;-52
2023/08/24 12:22:58;;;;;;;0.10;0.10;;;;;;;;;;5136681;27;20490;-54
2023/08/24 12:25:25;;;;;;;0.10;0.10;;;;;;;;;;5137432;27;20050;-50
2023/08/24 12:27:52;;;;;;;0.10;0.10;;;;;;;;;;5129387;27;20076;-51
2023/08/24 12:30:18;;;;;;;0.10;0.10;;;;;;;;;;5127663;27;20055;-53
2023/08/24 12:32:45;;;;;;;0.10;0.10;;;;;;;;;;5126646;27;20334;-54
2023/08/24 12:35:11;;;;;;;0.20;0.20;;;;;;;;;;5122827;27;20047;-50
2023/08/24 12:37:37;;;;;;;0.10;0.10;;;;;;;;;;5099566;27;20039;-54
2023/08/24 12:40:05;;;;;;;0.10;0.10;;;;;;;;;;5133853;27;20141;-52
2023/08/24 12:42:31;;;;;;;;;;;;;;;;;;5133726;27;20043;-53
2023/08/24 12:44:57;;;;;;;0.10;0.10;;;;;;;;;;5129805;27;19927;-50
2023/08/24 12:47:23;;;;;;;0.10;0.10;;;;;;;;;;5137823;27;20393;-51
2023/08/24 12:49:50;;;;;;;0.10;0.10;;;;;;;;;;5117296;27;20046;-51
2023/08/24 12:52:16;;;;;;;0.10;0.10;;;;;;;;;;5140752;27;20046;-51
2023/08/24 12:54:42;;;;;;;0.10;0.10;;;;;;;;;;5133153;27;20050;-53
2023/08/24 12:57:08;;;;;;;0.10;0.10;;;;;;;;;;5132152;27;20589;-51
2023/08/24 12:59:33;;;;;;;0.10;0.10;;;;;;;;;;5112838;27;20145;-51
2023/08/24 13:01:59;;;;;;;0.10;0.10;;;;;;;;;;5128884;27;20626;-50
2023/08/24 13:04:24;;;;;;;0.10;0.10;;;;;;;;;;5134375;27;20042;-54
2023/08/24 13:06:50;;;;;;;0.10;0.10;;;;;;;;;;5134882;27;20088;-54
2023/08/24 13:09:16;;;;;;;0.10;0.10;;;;;;;;;;5134848;27;20053;-53
2023/08/24 13:11:42;;;;;;;0.10;0.10;;;;;;;;;;5140005;27;20134;-54
2023/08/24 13:14:08;;;;;;;0.10;0.10;;;;;;;;;;5135680;27;20051;-52
2023/08/24 13:16:33;;;;;;;0.10;0.10;;;;;;;;;;5131453;27;20047;-54
2023/08/24 13:18:59;;;;;;;0.10;0.10;;;;;;;;;;5133511;27;20043;-54
2023/08/24 13:21:24;;;;;;;0.10;0.10;;;;;;;;;;5136288;27;20047;-55
2023/08/24 13:23:50;;;;;;;0.10;0.10;;;;;;;;;;5112104;27;20058;-54
2023/08/24 13:26:18;;;;;;;0.10;0.10;;;;;;;;;;5135880;27;20087;-54
2023/08/24 13:28:44;;;;;;;0.10;0.10;;;;;;;;;;5129950;27;20085;-51
2023/08/24 13:31:09;;;;;;;0.10;0.10;;;;;;;;;;5129479;27;20047;-53
2023/08/24 13:33:35;;;;;;;0.10;0.10;;;;;;;;;;5130722;27;20050;-54
2023/08/24 13:36:01;;;;;;;0.10;0.10;;;;;;;;;;5124954;27;20049;-52
2023/08/24 13:38:27;;;;;;;0.10;0.10;;;;;;;;;;5129499;27;20671;-54
2023/08/24 13:40:53;;;;;;;0.10;0.10;;;;;;;;;;5131552;27;20069;-54
2023/08/24 13:43:19;;;;;;;0.10;0.10;;;;;;;;;;5141914;27;20498;-55
2023/08/24 13:45:45;;;;;;;0.10;0.10;;;;;;;;;;5137436;27;20452;-53
2023/08/24 13:48:11;;;;;;;0.10;0.10;;;;;;;;;;5142604;27;20494;-53
2023/08/24 13:50:36;;;;;;;0.10;0.10;;;;;;;;;;5129356;27;20086;-54
2023/08/24 13:53:02;;;;;;;0.10;0.10;;;;;;;;;;5141947;27;20043;-54
2023/08/24 13:55:28;;;;;;;0.10;0.10;;;;;;;;;;5138106;27;20074;-53
2023/08/24 13:57:54;;;;;;;0.10;0.10;;;;;;;;;;5131070;27;20196;-56
2023/08/24 14:00:22;;;;;;;0.10;0.10;;;;;;;;;;5137035;27;20392;-53
2023/08/24 14:02:48;;;;;;;0.15;0.10;;;;;;;;;;5136565;27;20043;-52
2023/08/24 14:05:15;;;;;;;0.10;0.10;;;;;;;;;;5130923;27;20107;-53
2023/08/24 14:07:40;;;;;;;0.10;0.10;;;;;;;;;;5145536;27;20074;-51
2023/08/24 14:10:07;;;;;;;0.10;0.10;;;;;;;;;;5142461;27;20053;-52
2023/08/24 14:12:33;;;;;;;0.10;0.10;;;;;;;;;;5145054;27;20043;-50
2023/08/24 14:14:59;;;;;;;0.10;0.10;;;;;;;;;;5128815;27;20046;-51
2023/08/24 14:17:24;;;;;;;0.10;0.10;;;;;;;;;;5125291;27;20099;-50
2023/08/24 14:19:50;;;;;;;0.10;0.10;;;;;;;;;;5142310;27;20054;-50
2023/08/24 14:22:16;;;;;;;0.10;0.10;;;;;;;;;;5144685;27;20058;-50
2023/08/24 14:24:41;;;;;;;0.10;0.10;;;;;;;;;;5144710;27;20447;-50
2023/08/24 14:27:07;;;;;;;0.10;0.10;;;;;;;;;;5144180;27;20043;-49
2023/08/24 14:29:32;;;;;;;0.10;0.10;;;;;;;;;;5144707;27;20415;-52
2023/08/24 14:31:58;;;;;;;0.10;0.10;;;;;;;;;;5144445;27;20039;-51
2023/08/24 14:34:23;;;;;;;0.10;0.10;;;;;;;;;;5145049;27;20046;-51
2023/08/24 14:36:49;;;;;;;0.10;0.10;;;;;;;;;;5145756;27;20135;-51
2023/08/24 14:39:15;;;;;;;0.10;0.10;;;;;;;;;;5145850;27;20514;-50
2023/08/24 14:41:40;;;;;;;0.10;0.10;;;;;;;;;;5144705;27;20145;-52